sensor_id;sensor_type;location;lat;lon;timestamp;temperature;humidity
37594;DHT22;23441;50.856;6.076;2022-09-28T00:01:56;7.70;99.90
37594;DHT22;23441;50.856;6.076;2022-09-28T00:04:22;7.70;99.90
37594;DHT22;23441;50.856;6.076;2022-09-28T00:06:48;7.70;99.90
37594;DHT22;23441;50.856;6.076;2022-09-28T00:09:14;7.70;99.90
37594;DHT22;23441;50.856;6.076;2022-09-28T00:11:41;7.70;99.90
37594;DHT22;23441;50.856;6.076;2022-09-28T00:14:08;7.70;99.90
37594;DHT22;23441;50.856;6.076;2022-09-28T00:16:39;7.70;99.90
37594;DHT22;23441;50.856;6.076;2022-09-28T00:19:05;7.70;99.90
37594;DHT22;23441;50.856;6.076;2022-09-28T00:21:34;7.70;99.90
37594;DHT22;23441;50.856;6.076;2022-09-28T00:24:01;7.70;99.90
37594;DHT22;23441;50.856;6.076;2022-09-28T00:26:42;7.70;99.90
37594;DHT22;23441;50.856;6.076;2022-09-28T00:29:20;7.70;99.90
37594;DHT22;23441;50.856;6.076;2022-09-28T00:31:47;7.70;99.90
37594;DHT22;23441;50.856;6.076;2022-09-28T00:34:14;7.70;99.90
37594;DHT22;23441;50.856;6.076;2022-09-28T00:36:43;7.70;99.90
37594;DHT22;23441;50.856;6.076;2022-09-28T00:39:10;7.70;99.90
37594;DHT22;23441;50.856;6.076;2022-09-28T00:41:36;7.80;99.90
37594;DHT22;23441;50.856;6.076;2022-09-28T00:46:57;7.80;99.90
37594;DHT22;23441;50.856;6.076;2022-09-28T00:49:48;7.90;99.90
37594;DHT22;23441;50.856;6.076;2022-09-28T00:52:24;7.90;99.90
37594;DHT22;23441;50.856;6.076;2022-09-28T00:54:51;7.90;99.90
37594;DHT22;23441;50.856;6.076;2022-09-28T00:57:18;7.90;99.90
37594;DHT22;23441;50.856;6.076;2022-09-28T00:59:45;7.90;99.90
37594;DHT22;23441;50.856;6.076;2022-09-28T01:02:11;7.90;99.90
37594;DHT22;23441;50.856;6.076;2022-09-28T01:04:38;7.90;99.90
37594;DHT22;23441;50.856;6.076;2022-09-28T01:07:04;7.90;99.90
37594;DHT22;23441;50.856;6.076;2022-09-28T01:09:31;7.90;99.90
37594;DHT22;23441;50.856;6.076;2022-09-28T01:11:57;7.90;99.90
37594;DHT22;23441;50.856;6.076;2022-09-28T01:14:23;7.90;99.90
37594;DHT22;23441;50.856;6.076;2022-09-28T01:24:50;7.90;99.90
37594;DHT22;23441;50.856;6.076;2022-09-28T01:27:40;7.90;99.90
37594;DHT22;23441;50.856;6.076;2022-09-28T01:30:12;7.90;99.90
37594;DHT22;23441;50.856;6.076;2022-09-28T01:33:02;7.90;99.90
37594;DHT22;23441;50.856;6.076;2022-09-28T01:35:30;7.90;99.90
37594;DHT22;23441;50.856;6.076;2022-09-28T01:38:20;7.90;99.90
37594;DHT22;23441;50.856;6.076;2022-09-28T01:40:47;7.90;99.90
37594;DHT22;23441;50.856;6.076;2022-09-28T01:43:25;7.90;99.90
37594;DHT22;23441;50.856;6.076;2022-09-28T01:45:59;8.00;99.90
37594;DHT22;23441;50.856;6.076;2022-09-28T01:49:01;8.00;99.90
37594;DHT22;23441;50.856;6.076;2022-09-28T01:51:39;7.90;99.90
37594;DHT22;23441;50.856;6.076;2022-09-28T01:54:12;7.90;99.90
37594;DHT22;23441;50.856;6.076;2022-09-28T01:59:29;8.00;99.90
37594;DHT22;23441;50.856;6.076;2022-09-28T02:02:13;7.90;99.90
37594;DHT22;23441;50.856;6.076;2022-09-28T02:04:44;7.90;99.90
37594;DHT22;23441;50.856;6.076;2022-09-28T02:07:19;7.90;99.90
37594;DHT22;23441;50.856;6.076;2022-09-28T02:09:53;7.80;99.90
37594;DHT22;23441;50.856;6.076;2022-09-28T02:15:13;7.80;99.90
37594;DHT22;23441;50.856;6.076;2022-09-28T02:17:42;7.80;99.90
37594;DHT22;23441;50.856;6.076;2022-09-28T02:20:08;7.80;99.90
37594;DHT22;23441;50.856;6.076;2022-09-28T02:22:42;7.80;99.90
37594;DHT22;23441;50.856;6.076;2022-09-28T02:25:16;7.80;99.90
37594;DHT22;23441;50.856;6.076;2022-09-28T02:28:01;7.80;99.90
37594;DHT22;23441;50.856;6.076;2022-09-28T02:30:29;7.80;99.90
37594;DHT22;23441;50.856;6.076;2022-09-28T02:33:00;7.90;99.90
37594;DHT22;23441;50.856;6.076;2022-09-28T02:35:27;7.80;99.90
37594;DHT22;23441;50.856;6.076;2022-09-28T02:37:53;7.90;99.90
37594;DHT22;23441;50.856;6.076;2022-09-28T02:40:25;7.90;99.90
37594;DHT22;23441;50.856;6.076;2022-09-28T02:43:31;7.90;99.90
37594;DHT22;23441;50.856;6.076;2022-09-28T02:49:20;7.80;99.90
37594;DHT22;23441;50.856;6.076;2022-09-28T03:04:44;7.90;99.90
37594;DHT22;23441;50.856;6.076;2022-09-28T03:07:23;7.80;99.90
37594;DHT22;23441;50.856;6.076;2022-09-28T03:10:10;7.90;99.90
37594;DHT22;23441;50.856;6.076;2022-09-28T03:12:38;7.80;99.90
37594;DHT22;23441;50.856;6.076;2022-09-28T03:17:32;7.80;99.90
37594;DHT22;23441;50.856;6.076;2022-09-28T03:19:58;7.80;99.90
37594;DHT22;23441;50.856;6.076;2022-09-28T03:22:24;7.70;99.90
37594;DHT22;23441;50.856;6.076;2022-09-28T03:24:49;7.80;99.90
37594;DHT22;23441;50.856;6.076;2022-09-28T03:27:15;7.80;99.90
37594;DHT22;23441;50.856;6.076;2022-09-28T03:29:41;7.80;99.90
37594;DHT22;23441;50.856;6.076;2022-09-28T03:32:06;7.80;99.90
37594;DHT22;23441;50.856;6.076;2022-09-28T03:34:32;7.80;99.90
37594;DHT22;23441;50.856;6.076;2022-09-28T03:36:59;7.80;99.90
37594;DHT22;23441;50.856;6.076;2022-09-28T03:39:25;7.80;99.90
37594;DHT22;23441;50.856;6.076;2022-09-28T03:41:51;7.80;99.90
37594;DHT22;23441;50.856;6.076;2022-09-28T03:44:17;7.70;99.90
37594;DHT22;23441;50.856;6.076;2022-09-28T03:46:43;7.70;99.90
37594;DHT22;23441;50.856;6.076;2022-09-28T03:49:09;7.70;99.90
37594;DHT22;23441;50.856;6.076;2022-09-28T03:51:35;7.70;99.90
37594;DHT22;23441;50.856;6.076;2022-09-28T03:54:00;7.70;99.90
37594;DHT22;23441;50.856;6.076;2022-09-28T03:56:26;7.60;99.90
37594;DHT22;23441;50.856;6.076;2022-09-28T03:58:52;7.60;99.90
37594;DHT22;23441;50.856;6.076;2022-09-28T04:01:17;7.60;99.90
37594;DHT22;23441;50.856;6.076;2022-09-28T04:03:44;7.50;99.90
37594;DHT22;23441;50.856;6.076;2022-09-28T04:06:10;7.50;99.90
37594;DHT22;23441;50.856;6.076;2022-09-28T04:08:36;7.50;99.90
37594;DHT22;23441;50.856;6.076;2022-09-28T04:11:02;7.50;99.90
37594;DHT22;23441;50.856;6.076;2022-09-28T04:13:28;7.40;99.90
37594;DHT22;23441;50.856;6.076;2022-09-28T04:15:57;7.40;99.90
37594;DHT22;23441;50.856;6.076;2022-09-28T04:18:24;7.40;99.90
37594;DHT22;23441;50.856;6.076;2022-09-28T04:21:10;7.40;99.90
37594;DHT22;23441;50.856;6.076;2022-09-28T04:23:38;7.40;99.90
37594;DHT22;23441;50.856;6.076;2022-09-28T04:26:05;7.40;99.90
37594;DHT22;23441;50.856;6.076;2022-09-28T04:28:31;7.40;99.90
37594;DHT22;23441;50.856;6.076;2022-09-28T04:31:18;7.30;99.90
37594;DHT22;23441;50.856;6.076;2022-09-28T04:33:44;7.30;99.90
37594;DHT22;23441;50.856;6.076;2022-09-28T04:36:10;7.30;99.90
37594;DHT22;23441;50.856;6.076;2022-09-28T04:38:37;7.30;99.90
37594;DHT22;23441;50.856;6.076;2022-09-28T04:41:02;7.30;99.90
37594;DHT22;23441;50.856;6.076;2022-09-28T04:43:28;7.30;99.90
37594;DHT22;23441;50.856;6.076;2022-09-28T04:46:01;7.40;99.90
37594;DHT22;23441;50.856;6.076;2022-09-28T04:48:28;7.50;99.90
37594;DHT22;23441;50.856;6.076;2022-09-28T04:50:55;7.50;99.90
37594;DHT22;23441;50.856;6.076;2022-09-28T04:53:21;7.50;99.90
37594;DHT22;23441;50.856;6.076;2022-09-28T04:56:07;7.50;99.90
37594;DHT22;23441;50.856;6.076;2022-09-28T04:58:34;7.50;99.90
37594;DHT22;23441;50.856;6.076;2022-09-28T05:01:03;7.50;99.90
37594;DHT22;23441;50.856;6.076;2022-09-28T05:03:30;7.50;99.90
37594;DHT22;23441;50.856;6.076;2022-09-28T05:05:56;7.50;99.90
37594;DHT22;23441;50.856;6.076;2022-09-28T05:08:22;7.50;99.90
37594;DHT22;23441;50.856;6.076;2022-09-28T05:10:47;7.50;99.90
37594;DHT22;23441;50.856;6.076;2022-09-28T05:13:13;7.50;99.90
37594;DHT22;23441;50.856;6.076;2022-09-28T05:15:40;7.50;99.90
37594;DHT22;23441;50.856;6.076;2022-09-28T05:18:07;7.40;99.90
37594;DHT22;23441;50.856;6.076;2022-09-28T05:20:33;7.40;99.90
37594;DHT22;23441;50.856;6.076;2022-09-28T05:22:59;7.40;99.90
37594;DHT22;23441;50.856;6.076;2022-09-28T05:25:25;7.40;99.90
37594;DHT22;23441;50.856;6.076;2022-09-28T05:27:54;7.40;99.90
37594;DHT22;23441;50.856;6.076;2022-09-28T05:30:21;7.40;99.90
37594;DHT22;23441;50.856;6.076;2022-09-28T05:32:47;7.40;99.90
37594;DHT22;23441;50.856;6.076;2022-09-28T05:35:15;7.40;99.90
37594;DHT22;23441;50.856;6.076;2022-09-28T05:37:41;7.40;99.90
37594;DHT22;23441;50.856;6.076;2022-09-28T05:40:07;7.50;99.90
37594;DHT22;23441;50.856;6.076;2022-09-28T05:42:33;7.50;99.90
37594;DHT22;23441;50.856;6.076;2022-09-28T05:44:59;7.50;99.90
37594;DHT22;23441;50.856;6.076;2022-09-28T05:47:25;7.50;99.90
37594;DHT22;23441;50.856;6.076;2022-09-28T05:49:52;7.60;99.90
37594;DHT22;23441;50.856;6.076;2022-09-28T05:52:18;7.60;99.90
37594;DHT22;23441;50.856;6.076;2022-09-28T05:54:44;7.60;99.90
37594;DHT22;23441;50.856;6.076;2022-09-28T05:57:11;7.60;99.90
37594;DHT22;23441;50.856;6.076;2022-09-28T05:59:36;7.70;99.90
37594;DHT22;23441;50.856;6.076;2022-09-28T06:02:04;7.70;99.90
37594;DHT22;23441;50.856;6.076;2022-09-28T06:04:31;7.70;99.90
37594;DHT22;23441;50.856;6.076;2022-09-28T06:06:58;7.70;99.90
37594;DHT22;23441;50.856;6.076;2022-09-28T06:09:24;7.70;99.90
37594;DHT22;23441;50.856;6.076;2022-09-28T06:11:50;7.70;99.90
37594;DHT22;23441;50.856;6.076;2022-09-28T06:14:16;7.70;99.90
37594;DHT22;23441;50.856;6.076;2022-09-28T06:16:43;7.80;99.90
37594;DHT22;23441;50.856;6.076;2022-09-28T06:19:10;7.80;99.90
37594;DHT22;23441;50.856;6.076;2022-09-28T06:21:36;7.80;99.90
37594;DHT22;23441;50.856;6.076;2022-09-28T06:24:03;7.80;99.90
37594;DHT22;23441;50.856;6.076;2022-09-28T06:26:29;7.80;99.90
37594;DHT22;23441;50.856;6.076;2022-09-28T06:28:55;8.00;99.90
37594;DHT22;23441;50.856;6.076;2022-09-28T06:31:21;8.00;99.90
37594;DHT22;23441;50.856;6.076;2022-09-28T06:33:49;8.00;99.90
37594;DHT22;23441;50.856;6.076;2022-09-28T06:36:15;8.00;99.90
37594;DHT22;23441;50.856;6.076;2022-09-28T06:38:41;8.00;99.90
37594;DHT22;23441;50.856;6.076;2022-09-28T06:41:08;8.10;99.90
37594;DHT22;23441;50.856;6.076;2022-09-28T06:43:34;8.10;99.90
37594;DHT22;23441;50.856;6.076;2022-09-28T06:46:00;8.10;99.90
37594;DHT22;23441;50.856;6.076;2022-09-28T06:48:26;8.10;99.90
37594;DHT22;23441;50.856;6.076;2022-09-28T06:50:52;8.10;99.90
37594;DHT22;23441;50.856;6.076;2022-09-28T06:53:18;8.10;99.90
37594;DHT22;23441;50.856;6.076;2022-09-28T06:55:45;8.10;99.90
37594;DHT22;23441;50.856;6.076;2022-09-28T06:58:17;8.10;99.90
37594;DHT22;23441;50.856;6.076;2022-09-28T07:00:45;8.20;99.90
37594;DHT22;23441;50.856;6.076;2022-09-28T07:03:16;8.20;99.90
37594;DHT22;23441;50.856;6.076;2022-09-28T07:05:48;8.20;99.90
37594;DHT22;23441;50.856;6.076;2022-09-28T07:08:15;8.20;99.90
37594;DHT22;23441;50.856;6.076;2022-09-28T07:10:49;8.20;99.90
37594;DHT22;23441;50.856;6.076;2022-09-28T07:13:27;8.20;99.90
37594;DHT22;23441;50.856;6.076;2022-09-28T07:15:57;8.30;99.90
37594;DHT22;23441;50.856;6.076;2022-09-28T07:18:26;8.20;99.90
37594;DHT22;23441;50.856;6.076;2022-09-28T07:20:54;8.30;99.90
37594;DHT22;23441;50.856;6.076;2022-09-28T07:23:21;8.40;99.90
37594;DHT22;23441;50.856;6.076;2022-09-28T07:25:47;8.40;99.90
37594;DHT22;23441;50.856;6.076;2022-09-28T07:28:15;8.40;99.90
37594;DHT22;23441;50.856;6.076;2022-09-28T07:30:42;8.50;99.90
37594;DHT22;23441;50.856;6.076;2022-09-28T07:33:11;8.50;99.90
37594;DHT22;23441;50.856;6.076;2022-09-28T07:35:39;8.70;99.90
37594;DHT22;23441;50.856;6.076;2022-09-28T07:38:07;8.70;99.90
37594;DHT22;23441;50.856;6.076;2022-09-28T07:40:34;8.80;99.90
37594;DHT22;23441;50.856;6.076;2022-09-28T07:43:19;9.00;99.90
37594;DHT22;23441;50.856;6.076;2022-09-28T07:45:50;9.00;99.90
37594;DHT22;23441;50.856;6.076;2022-09-28T07:48:17;9.00;99.90
37594;DHT22;23441;50.856;6.076;2022-09-28T07:50:54;9.10;99.90
37594;DHT22;23441;50.856;6.076;2022-09-28T07:53:23;9.10;99.90
37594;DHT22;23441;50.856;6.076;2022-09-28T07:55:54;9.20;99.90
37594;DHT22;23441;50.856;6.076;2022-09-28T07:58:21;9.20;99.90
37594;DHT22;23441;50.856;6.076;2022-09-28T08:00:48;9.30;99.90
37594;DHT22;23441;50.856;6.076;2022-09-28T08:03:16;9.40;99.90
37594;DHT22;23441;50.856;6.076;2022-09-28T08:05:42;9.30;99.90
37594;DHT22;23441;50.856;6.076;2022-09-28T08:08:08;9.50;99.90
37594;DHT22;23441;50.856;6.076;2022-09-28T08:10:35;9.50;99.90
37594;DHT22;23441;50.856;6.076;2022-09-28T08:13:02;9.50;99.90
37594;DHT22;23441;50.856;6.076;2022-09-28T08:15:31;9.60;99.90
37594;DHT22;23441;50.856;6.076;2022-09-28T08:18:03;9.60;99.90
37594;DHT22;23441;50.856;6.076;2022-09-28T08:20:30;9.60;99.90
37594;DHT22;23441;50.856;6.076;2022-09-28T08:23:14;9.50;99.90
37594;DHT22;23441;50.856;6.076;2022-09-28T08:25:45;9.60;99.90
37594;DHT22;23441;50.856;6.076;2022-09-28T08:28:14;9.70;99.90
37594;DHT22;23441;50.856;6.076;2022-09-28T08:30:44;9.80;99.90
37594;DHT22;23441;50.856;6.076;2022-09-28T08:33:14;9.80;99.90
37594;DHT22;23441;50.856;6.076;2022-09-28T08:35:41;9.90;99.90
37594;DHT22;23441;50.856;6.076;2022-09-28T08:38:07;10.20;99.90
37594;DHT22;23441;50.856;6.076;2022-09-28T08:41:14;10.30;99.90
37594;DHT22;23441;50.856;6.076;2022-09-28T08:46:34;10.40;99.90
37594;DHT22;23441;50.856;6.076;2022-09-28T08:49:17;10.30;99.90
37594;DHT22;23441;50.856;6.076;2022-09-28T08:51:58;10.30;99.90
37594;DHT22;23441;50.856;6.076;2022-09-28T08:54:35;10.30;99.90
37594;DHT22;23441;50.856;6.076;2022-09-28T08:57:20;10.20;99.90
37594;DHT22;23441;50.856;6.076;2022-09-28T08:59:57;10.20;99.90
37594;DHT22;23441;50.856;6.076;2022-09-28T09:02:35;10.10;99.90
37594;DHT22;23441;50.856;6.076;2022-09-28T09:05:10;10.20;99.90
37594;DHT22;23441;50.856;6.076;2022-09-28T09:15:47;10.50;99.90
37594;DHT22;23441;50.856;6.076;2022-09-28T09:20:57;10.30;99.90
37594;DHT22;23441;50.856;6.076;2022-09-28T09:26:02;10.40;99.90
37594;DHT22;23441;50.856;6.076;2022-09-28T09:39:08;11.10;99.90
37594;DHT22;23441;50.856;6.076;2022-09-28T09:44:23;11.10;99.90
37594;DHT22;23441;50.856;6.076;2022-09-28T09:49:54;11.60;99.90
37594;DHT22;23441;50.856;6.076;2022-09-28T09:52:43;11.70;99.90
37594;DHT22;23441;50.856;6.076;2022-09-28T09:55:38;11.90;99.90
37594;DHT22;23441;50.856;6.076;2022-09-28T09:58:20;12.20;99.90
37594;DHT22;23441;50.856;6.076;2022-09-28T10:00:51;12.30;99.90
37594;DHT22;23441;50.856;6.076;2022-09-28T10:03:26;12.10;99.90
37594;DHT22;23441;50.856;6.076;2022-09-28T10:06:19;12.10;99.90
37594;DHT22;23441;50.856;6.076;2022-09-28T10:09:02;12.10;99.90
37594;DHT22;23441;50.856;6.076;2022-09-28T10:11:47;12.20;99.90
37594;DHT22;23441;50.856;6.076;2022-09-28T10:14:22;12.30;99.90
37594;DHT22;23441;50.856;6.076;2022-09-28T10:16:53;12.20;99.90
37594;DHT22;23441;50.856;6.076;2022-09-28T10:19:28;12.40;99.90
37594;DHT22;23441;50.856;6.076;2022-09-28T10:21:55;12.30;99.90
37594;DHT22;23441;50.856;6.076;2022-09-28T10:24:43;12.30;99.90
37594;DHT22;23441;50.856;6.076;2022-09-28T10:27:14;12.20;99.90
37594;DHT22;23441;50.856;6.076;2022-09-28T10:30:22;12.20;99.90
37594;DHT22;23441;50.856;6.076;2022-09-28T10:32:52;12.20;99.90
37594;DHT22;23441;50.856;6.076;2022-09-28T10:35:39;12.30;99.90
37594;DHT22;23441;50.856;6.076;2022-09-28T10:38:13;12.30;99.90
37594;DHT22;23441;50.856;6.076;2022-09-28T10:40:46;12.30;99.90
37594;DHT22;23441;50.856;6.076;2022-09-28T10:43:26;12.30;99.90
37594;DHT22;23441;50.856;6.076;2022-09-28T10:46:06;12.40;99.90
37594;DHT22;23441;50.856;6.076;2022-09-28T10:48:53;12.40;99.90
37594;DHT22;23441;50.856;6.076;2022-09-28T10:54:17;12.90;99.90
37594;DHT22;23441;50.856;6.076;2022-09-28T10:56:44;12.90;99.90
37594;DHT22;23441;50.856;6.076;2022-09-28T11:02:08;12.70;99.90
37594;DHT22;23441;50.856;6.076;2022-09-28T11:04:40;12.70;99.90
37594;DHT22;23441;50.856;6.076;2022-09-28T11:07:17;12.90;99.90
37594;DHT22;23441;50.856;6.076;2022-09-28T11:09:46;12.80;99.90
37594;DHT22;23441;50.856;6.076;2022-09-28T11:12:17;13.00;99.90
37594;DHT22;23441;50.856;6.076;2022-09-28T11:14:45;13.30;99.90
37594;DHT22;23441;50.856;6.076;2022-09-28T11:17:36;13.40;99.90
37594;DHT22;23441;50.856;6.076;2022-09-28T11:20:32;13.60;99.90
37594;DHT22;23441;50.856;6.076;2022-09-28T11:23:22;13.80;99.90
37594;DHT22;23441;50.856;6.076;2022-09-28T11:26:07;13.60;99.90
37594;DHT22;23441;50.856;6.076;2022-09-28T11:28:35;13.50;99.90
37594;DHT22;23441;50.856;6.076;2022-09-28T11:31:03;13.40;99.90
37594;DHT22;23441;50.856;6.076;2022-09-28T11:33:37;13.20;99.90
37594;DHT22;23441;50.856;6.076;2022-09-28T11:44:20;12.90;99.90
37594;DHT22;23441;50.856;6.076;2022-09-28T11:49:50;12.80;99.90
37594;DHT22;23441;50.856;6.076;2022-09-28T11:52:27;12.80;99.90
37594;DHT22;23441;50.856;6.076;2022-09-28T11:57:29;13.20;99.90
37594;DHT22;23441;50.856;6.076;2022-09-28T12:00:00;13.20;99.90
37594;DHT22;23441;50.856;6.076;2022-09-28T12:02:33;13.40;99.90
37594;DHT22;23441;50.856;6.076;2022-09-28T12:05:18;13.40;99.90
37594;DHT22;23441;50.856;6.076;2022-09-28T12:08:11;13.40;99.90
37594;DHT22;23441;50.856;6.076;2022-09-28T12:10:44;13.40;99.90
37594;DHT22;23441;50.856;6.076;2022-09-28T12:13:21;13.40;99.90
37594;DHT22;23441;50.856;6.076;2022-09-28T12:16:03;13.30;99.90
37594;DHT22;23441;50.856;6.076;2022-09-28T12:18:57;13.30;99.90
37594;DHT22;23441;50.856;6.076;2022-09-28T12:30:18;13.60;99.90
37594;DHT22;23441;50.856;6.076;2022-09-28T12:32:46;13.40;99.90
37594;DHT22;23441;50.856;6.076;2022-09-28T12:51:53;12.70;99.90
37594;DHT22;23441;50.856;6.076;2022-09-28T13:24:37;13.50;99.90
37594;DHT22;23441;50.856;6.076;2022-09-28T13:27:13;14.20;99.90
37594;DHT22;23441;50.856;6.076;2022-09-28T13:29:40;14.60;99.90
37594;DHT22;23441;50.856;6.076;2022-09-28T13:32:09;14.50;99.90
37594;DHT22;23441;50.856;6.076;2022-09-28T13:34:37;14.30;99.90
37594;DHT22;23441;50.856;6.076;2022-09-28T13:37:29;14.10;99.90
37594;DHT22;23441;50.856;6.076;2022-09-28T13:39:59;13.70;99.90
37594;DHT22;23441;50.856;6.076;2022-09-28T13:56:17;13.30;99.90
37594;DHT22;23441;50.856;6.076;2022-09-28T13:59:22;13.20;99.90
37594;DHT22;23441;50.856;6.076;2022-09-28T14:01:56;13.10;99.90
37594;DHT22;23441;50.856;6.076;2022-09-28T14:05:04;13.10;99.90
37594;DHT22;23441;50.856;6.076;2022-09-28T14:10:15;13.10;99.90
37594;DHT22;23441;50.856;6.076;2022-09-28T14:21:18;13.30;99.90
37594;DHT22;23441;50.856;6.076;2022-09-28T14:31:57;12.60;99.90
37594;DHT22;23441;50.856;6.076;2022-09-28T14:34:42;12.00;99.90
37594;DHT22;23441;50.856;6.076;2022-09-28T14:37:24;11.60;99.90
37594;DHT22;23441;50.856;6.076;2022-09-28T14:40:29;11.30;99.90
37594;DHT22;23441;50.856;6.076;2022-09-28T14:54:21;10.50;99.90
37594;DHT22;23441;50.856;6.076;2022-09-28T14:59:24;10.10;99.90
37594;DHT22;23441;50.856;6.076;2022-09-28T15:01:56;10.00;99.90
37594;DHT22;23441;50.856;6.076;2022-09-28T15:04:28;9.90;99.90
37594;DHT22;23441;50.856;6.076;2022-09-28T15:06:55;9.90;99.90
37594;DHT22;23441;50.856;6.076;2022-09-28T15:09:33;9.90;99.90
37594;DHT22;23441;50.856;6.076;2022-09-28T15:12:04;10.00;99.90
37594;DHT22;23441;50.856;6.076;2022-09-28T15:17:11;10.10;99.90
37594;DHT22;23441;50.856;6.076;2022-09-28T15:22:19;10.30;99.90
37594;DHT22;23441;50.856;6.076;2022-09-28T15:25:13;10.40;99.90
37594;DHT22;23441;50.856;6.076;2022-09-28T15:27:39;10.50;99.90
37594;DHT22;23441;50.856;6.076;2022-09-28T15:32:51;10.90;99.90
37594;DHT22;23441;50.856;6.076;2022-09-28T15:35:24;11.10;99.90
37594;DHT22;23441;50.856;6.076;2022-09-28T15:37:51;11.20;99.90
37594;DHT22;23441;50.856;6.076;2022-09-28T15:40:30;11.30;99.90
37594;DHT22;23441;50.856;6.076;2022-09-28T15:42:58;11.40;99.90
37594;DHT22;23441;50.856;6.076;2022-09-28T15:45:35;11.40;99.90
37594;DHT22;23441;50.856;6.076;2022-09-28T15:51:17;11.50;99.90
37594;DHT22;23441;50.856;6.076;2022-09-28T15:53:57;11.60;99.90
37594;DHT22;23441;50.856;6.076;2022-09-28T15:56:24;11.60;99.90
37594;DHT22;23441;50.856;6.076;2022-09-28T15:59:17;11.60;99.90
37594;DHT22;23441;50.856;6.076;2022-09-28T16:01:44;11.50;99.90
37594;DHT22;23441;50.856;6.076;2022-09-28T16:12:50;11.40;99.90
37594;DHT22;23441;50.856;6.076;2022-09-28T16:17:56;11.10;99.90
37594;DHT22;23441;50.856;6.076;2022-09-28T16:20:36;11.00;99.90
37594;DHT22;23441;50.856;6.076;2022-09-28T16:28:45;10.70;99.90
37594;DHT22;23441;50.856;6.076;2022-09-28T16:33:52;10.70;99.90
37594;DHT22;23441;50.856;6.076;2022-09-28T16:36:19;10.80;99.90
37594;DHT22;23441;50.856;6.076;2022-09-28T16:38:48;10.70;99.90
37594;DHT22;23441;50.856;6.076;2022-09-28T16:41:17;10.80;99.90
37594;DHT22;23441;50.856;6.076;2022-09-28T16:43:44;10.80;99.90
37594;DHT22;23441;50.856;6.076;2022-09-28T16:46:13;10.80;99.90
37594;DHT22;23441;50.856;6.076;2022-09-28T16:48:48;10.80;99.90
37594;DHT22;23441;50.856;6.076;2022-09-28T16:51:19;10.70;99.90
37594;DHT22;23441;50.856;6.076;2022-09-28T16:53:45;10.70;99.90
37594;DHT22;23441;50.856;6.076;2022-09-28T16:56:30;10.70;99.90
37594;DHT22;23441;50.856;6.076;2022-09-28T16:58:57;10.60;99.90
37594;DHT22;23441;50.856;6.076;2022-09-28T17:01:23;10.70;99.90
37594;DHT22;23441;50.856;6.076;2022-09-28T17:03:49;10.60;99.90
37594;DHT22;23441;50.856;6.076;2022-09-28T17:06:17;10.60;99.90
37594;DHT22;23441;50.856;6.076;2022-09-28T17:08:43;10.60;99.90
37594;DHT22;23441;50.856;6.076;2022-09-28T17:11:14;10.50;99.90
37594;DHT22;23441;50.856;6.076;2022-09-28T17:13:41;10.40;99.90
37594;DHT22;23441;50.856;6.076;2022-09-28T17:16:19;10.30;99.90
37594;DHT22;23441;50.856;6.076;2022-09-28T17:18:45;10.30;99.90
37594;DHT22;23441;50.856;6.076;2022-09-28T17:21:18;10.30;99.90
37594;DHT22;23441;50.856;6.076;2022-09-28T17:23:48;10.10;99.90
37594;DHT22;23441;50.856;6.076;2022-09-28T17:26:32;10.10;99.90
37594;DHT22;23441;50.856;6.076;2022-09-28T17:28:59;10.10;99.90
37594;DHT22;23441;50.856;6.076;2022-09-28T17:31:27;10.10;99.90
37594;DHT22;23441;50.856;6.076;2022-09-28T17:33:54;10.00;99.90
37594;DHT22;23441;50.856;6.076;2022-09-28T17:36:20;9.90;99.90
37594;DHT22;23441;50.856;6.076;2022-09-28T17:38:47;9.90;99.90
37594;DHT22;23441;50.856;6.076;2022-09-28T17:41:15;9.90;99.90
37594;DHT22;23441;50.856;6.076;2022-09-28T17:43:41;9.90;99.90
37594;DHT22;23441;50.856;6.076;2022-09-28T17:48:42;9.90;99.90
37594;DHT22;23441;50.856;6.076;2022-09-28T17:51:12;9.90;99.90
37594;DHT22;23441;50.856;6.076;2022-09-28T17:53:38;9.80;99.90
37594;DHT22;23441;50.856;6.076;2022-09-28T17:56:04;9.80;99.90
37594;DHT22;23441;50.856;6.076;2022-09-28T17:58:30;9.80;99.90
37594;DHT22;23441;50.856;6.076;2022-09-28T18:00:56;9.80;99.90
37594;DHT22;23441;50.856;6.076;2022-09-28T18:03:23;9.70;99.90
37594;DHT22;23441;50.856;6.076;2022-09-28T18:06:01;9.50;99.90
37594;DHT22;23441;50.856;6.076;2022-09-28T18:08:28;9.50;99.90
37594;DHT22;23441;50.856;6.076;2022-09-28T18:10:54;9.40;99.90
37594;DHT22;23441;50.856;6.076;2022-09-28T18:13:22;9.30;99.90
37594;DHT22;23441;50.856;6.076;2022-09-28T18:15:51;9.40;99.90
37594;DHT22;23441;50.856;6.076;2022-09-28T18:18:17;9.40;99.90
37594;DHT22;23441;50.856;6.076;2022-09-28T18:20:43;9.50;99.90
37594;DHT22;23441;50.856;6.076;2022-09-28T18:23:09;9.50;99.90
37594;DHT22;23441;50.856;6.076;2022-09-28T18:25:38;9.60;99.90
37594;DHT22;23441;50.856;6.076;2022-09-28T18:28:04;9.60;99.90
37594;DHT22;23441;50.856;6.076;2022-09-28T18:30:30;9.50;99.90
37594;DHT22;23441;50.856;6.076;2022-09-28T18:32:56;9.50;99.90
37594;DHT22;23441;50.856;6.076;2022-09-28T18:35:22;9.30;99.90
37594;DHT22;23441;50.856;6.076;2022-09-28T18:37:47;9.20;99.90
37594;DHT22;23441;50.856;6.076;2022-09-28T18:40:14;9.20;99.90
37594;DHT22;23441;50.856;6.076;2022-09-28T18:42:41;9.20;99.90
37594;DHT22;23441;50.856;6.076;2022-09-28T18:45:08;9.20;99.90
37594;DHT22;23441;50.856;6.076;2022-09-28T18:47:38;9.20;99.90
37594;DHT22;23441;50.856;6.076;2022-09-28T18:50:05;9.20;99.90
37594;DHT22;23441;50.856;6.076;2022-09-28T18:52:34;9.20;99.90
37594;DHT22;23441;50.856;6.076;2022-09-28T18:55:00;9.20;99.90
37594;DHT22;23441;50.856;6.076;2022-09-28T18:57:25;9.30;99.90
37594;DHT22;23441;50.856;6.076;2022-09-28T18:59:51;9.30;99.90
37594;DHT22;23441;50.856;6.076;2022-09-28T19:02:17;9.20;99.90
37594;DHT22;23441;50.856;6.076;2022-09-28T19:04:42;9.20;99.90
37594;DHT22;23441;50.856;6.076;2022-09-28T19:07:09;9.20;99.90
37594;DHT22;23441;50.856;6.076;2022-09-28T19:09:35;9.20;99.90
37594;DHT22;23441;50.856;6.076;2022-09-28T19:12:01;9.20;99.90
37594;DHT22;23441;50.856;6.076;2022-09-28T19:14:26;9.20;99.90
37594;DHT22;23441;50.856;6.076;2022-09-28T19:16:52;9.20;99.90
37594;DHT22;23441;50.856;6.076;2022-09-28T19:19:19;9.10;99.90
37594;DHT22;23441;50.856;6.076;2022-09-28T19:21:45;9.10;99.90
37594;DHT22;23441;50.856;6.076;2022-09-28T19:24:16;9.10;99.90
37594;DHT22;23441;50.856;6.076;2022-09-28T19:26:43;9.00;99.90
37594;DHT22;23441;50.856;6.076;2022-09-28T19:29:10;9.10;99.90
37594;DHT22;23441;50.856;6.076;2022-09-28T19:31:37;9.10;99.90
37594;DHT22;23441;50.856;6.076;2022-09-28T19:34:03;9.00;99.90
37594;DHT22;23441;50.856;6.076;2022-09-28T19:36:29;9.00;99.90
37594;DHT22;23441;50.856;6.076;2022-09-28T19:38:56;9.00;99.90
37594;DHT22;23441;50.856;6.076;2022-09-28T19:41:24;9.10;99.90
37594;DHT22;23441;50.856;6.076;2022-09-28T19:44:07;9.10;99.90
37594;DHT22;23441;50.856;6.076;2022-09-28T19:46:36;9.20;99.90
37594;DHT22;23441;50.856;6.076;2022-09-28T19:49:07;9.20;99.90